createdAt,value
2024-03-01T00:02:16.966Z,6.81
2024-03-01T00:04:44.137Z,6.98
2024-03-01T00:07:11.327Z,7.01
2024-03-01T00:09:38.517Z,6.98
2024-03-01T00:12:05.934Z,6.96
2024-03-01T00:14:33.469Z,7.61
2024-03-01T00:17:00.814Z,7.55
2024-03-01T00:19:28.048Z,7.21
2024-03-01T00:21:55.185Z,6.98
2024-03-01T00:24:22.290Z,6.81
2024-03-01T00:26:49.552Z,6.91
2024-03-01T00:29:16.632Z,7.17
2024-03-01T00:31:43.829Z,7.24
2024-03-01T00:34:10.890Z,7.23
2024-03-01T00:36:38.016Z,6.93
2024-03-01T00:39:05.130Z,6.93
2024-03-01T00:41:32.184Z,7.17
2024-03-01T00:44:00.410Z,7.55
2024-03-01T00:46:28.266Z,7.85
2024-03-01T00:48:56.052Z,8.35
2024-03-01T00:51:23.572Z,8.21
2024-03-01T00:53:51.362Z,8.33
2024-03-01T00:56:18.646Z,8.04
2024-03-01T00:58:46.479Z,8.24
2024-03-01T01:01:14.459Z,8.31
2024-03-01T01:03:41.641Z,8.67
2024-03-01T01:06:08.847Z,8.64
2024-03-01T01:09:06.913Z,8.41
2024-03-01T01:11:34.049Z,8.58
2024-03-01T01:14:01.151Z,8.74
2024-03-01T01:16:28.340Z,8.70
2024-03-01T01:18:57.292Z,8.65
2024-03-01T01:21:24.400Z,8.41
2024-03-01T01:23:51.723Z,8.52
2024-03-01T01:26:18.879Z,8.26
2024-03-01T01:28:46.066Z,8.19
2024-03-01T01:31:13.130Z,8.32
2024-03-01T01:33:40.367Z,8.62
2024-03-01T01:36:07.521Z,8.61
2024-03-01T01:38:34.646Z,8.84
2024-03-01T01:41:01.784Z,8.61
2024-03-01T01:43:29.073Z,8.44
2024-03-01T01:45:56.519Z,8.73
2024-03-01T01:48:23.745Z,8.68
2024-03-01T01:50:51.203Z,8.61
2024-03-01T01:53:24.392Z,9.05
2024-03-01T01:55:54.788Z,9.09
2024-03-01T01:58:22.962Z,8.96
2024-03-01T02:00:50.662Z,8.71
2024-03-01T02:03:18.228Z,8.95
2024-03-01T02:05:45.981Z,8.42
2024-03-01T02:08:13.019Z,8.38
2024-03-01T02:10:40.189Z,8.77
2024-03-01T02:13:19.412Z,8.89
2024-03-01T02:15:48.283Z,8.99
2024-03-01T02:18:15.423Z,9.15
2024-03-01T02:21:11.384Z,8.87
2024-03-01T02:23:39.283Z,8.30
2024-03-01T02:26:07.216Z,8.60
2024-03-01T02:28:35.285Z,8.91
2024-03-01T02:31:03.442Z,9.10
2024-03-01T02:33:30.618Z,9.05
2024-03-01T02:35:57.763Z,8.95
2024-03-01T02:38:24.944Z,8.82
2024-03-01T02:40:51.994Z,8.49
2024-03-01T02:43:19.114Z,8.52
2024-03-01T02:45:46.369Z,8.54
2024-03-01T02:48:13.500Z,8.08
2024-03-01T02:50:40.617Z,7.83
2024-03-01T02:53:07.688Z,7.58
2024-03-01T02:55:34.859Z,8.04
2024-03-01T02:58:02.367Z,8.48
2024-03-01T03:00:29.686Z,8.96
2024-03-01T03:02:56.927Z,9.06
2024-03-01T03:05:24.142Z,8.62
2024-03-01T03:07:51.537Z,8.83
2024-03-01T03:10:18.989Z,9.05
2024-03-01T03:12:46.167Z,9.14
2024-03-01T03:15:14.974Z,8.80
2024-03-01T03:17:42.209Z,8.78
2024-03-01T03:20:12.618Z,8.80
2024-03-01T03:22:48.073Z,8.71
2024-03-01T03:25:16.092Z,8.85
2024-03-01T03:27:44.785Z,8.64
2024-03-01T03:30:12.359Z,8.38
2024-03-01T03:32:39.531Z,8.15
2024-03-01T03:35:06.975Z,8.03
2024-03-01T03:37:34.244Z,8.12
2024-03-01T03:40:01.893Z,8.22
2024-03-01T03:42:29.224Z,8.16
2024-03-01T03:44:56.318Z,8.22
2024-03-01T03:47:23.513Z,8.42
2024-03-01T03:49:50.573Z,8.38
2024-03-01T03:52:17.661Z,8.28
2024-03-01T03:54:44.767Z,8.40
2024-03-01T03:57:11.788Z,8.06
2024-03-01T03:59:38.921Z,8.17
2024-03-01T04:02:06.719Z,8.24
2024-03-01T04:04:34.143Z,8.25
2024-03-01T04:07:01.373Z,8.22
2024-03-01T04:09:28.509Z,8.29
2024-03-01T04:11:55.626Z,8.24
2024-03-01T04:14:22.829Z,8.21
2024-03-01T04:16:49.874Z,8.33
2024-03-01T04:19:17.048Z,8.29
2024-03-01T04:21:44.489Z,8.41
2024-03-01T04:24:13.726Z,8.53
2024-03-01T04:26:41.571Z,8.43
2024-03-01T04:29:08.714Z,8.41
2024-03-01T04:31:37.490Z,8.49
2024-03-01T04:34:07.926Z,8.58
2024-03-01T04:36:37.488Z,8.69
2024-03-01T04:39:04.925Z,8.81
2024-03-01T04:41:32.103Z,8.59
2024-03-01T04:43:59.238Z,8.67
2024-03-01T04:46:27.062Z,8.70
2024-03-01T04:48:56.357Z,8.61
2024-03-01T04:51:25.630Z,8.76
2024-03-01T04:53:52.840Z,9.07
2024-03-01T04:56:20.036Z,9.09
2024-03-01T04:58:47.190Z,9.26
2024-03-01T05:01:18.035Z,9.31
2024-03-01T05:03:46.094Z,9.15
2024-03-01T05:06:13.618Z,9.02
2024-03-01T05:08:40.767Z,9.20
2024-03-01T05:11:08.080Z,9.02
2024-03-01T05:13:35.425Z,8.85
2024-03-01T05:16:02.792Z,8.72
2024-03-01T05:18:30.618Z,8.53
2024-03-01T05:20:57.694Z,8.68
2024-03-01T05:23:24.953Z,8.95
2024-03-01T05:25:53.416Z,8.86
2024-03-01T05:28:20.864Z,9.06
2024-03-01T05:30:51.929Z,9.05
2024-03-01T05:33:21.015Z,9.16
2024-03-01T05:35:48.280Z,9.04
2024-03-01T05:38:15.567Z,9.08
2024-03-01T05:40:47.390Z,9.12
2024-03-01T05:43:23.712Z,9.35
2024-03-01T05:45:53.665Z,9.28
2024-03-01T05:48:21.549Z,9.59
2024-03-01T05:50:48.773Z,9.34
2024-03-01T05:53:17.032Z,9.39
2024-03-01T05:55:45.223Z,9.23
2024-03-01T05:58:12.556Z,8.95
2024-03-01T06:00:44.840Z,9.35
2024-03-01T06:03:12.014Z,9.48
2024-03-01T06:05:39.127Z,9.68
2024-03-01T06:08:06.498Z,9.88
2024-03-01T06:10:33.719Z,9.86
2024-03-01T06:13:01.211Z,10.12
2024-03-01T06:15:28.400Z,10.56
2024-03-01T06:17:55.529Z,10.56
2024-03-01T06:20:22.820Z,10.47
2024-03-01T06:22:50.149Z,9.29
2024-03-01T06:25:17.430Z,8.80
2024-03-01T06:27:44.555Z,8.62
2024-03-01T06:30:11.735Z,8.98
2024-03-01T06:32:38.946Z,9.32
2024-03-01T06:35:06.281Z,9.17
2024-03-01T06:37:33.513Z,8.51
2024-03-01T06:40:02.115Z,9.11
2024-03-01T06:42:29.476Z,9.06
2024-03-01T06:44:56.639Z,8.73
2024-03-01T06:47:23.869Z,8.45
2024-03-01T06:49:50.950Z,8.84
2024-03-01T06:52:18.090Z,8.92
2024-03-01T06:54:48.359Z,8.93
2024-03-01T06:57:15.607Z,9.08
2024-03-01T06:59:42.749Z,9.64
2024-03-01T07:02:11.425Z,10.12
2024-03-01T07:04:38.725Z,9.90
2024-03-01T07:07:06.052Z,10.05
2024-03-01T07:09:33.814Z,10.07
2024-03-01T07:12:00.845Z,9.84
2024-03-01T07:14:28.044Z,9.31
2024-03-01T07:16:55.049Z,9.09
2024-03-01T07:19:22.232Z,9.16
2024-03-01T07:21:49.493Z,9.43
2024-03-01T07:24:16.715Z,9.48
2024-03-01T07:26:43.757Z,10.37
2024-03-01T07:29:10.814Z,10.60
2024-03-01T07:31:38.273Z,11.37
2024-03-01T07:34:05.569Z,12.12
2024-03-01T07:36:32.883Z,11.71
2024-03-01T07:39:00.074Z,12.14
2024-03-01T07:41:27.219Z,12.52
2024-03-01T07:43:54.353Z,12.86
2024-03-01T07:46:21.517Z,13.26
2024-03-01T07:48:48.624Z,12.89
2024-03-01T07:51:15.841Z,12.00
2024-03-01T07:53:44.169Z,12.89
2024-03-01T07:56:11.937Z,13.37
2024-03-01T07:58:39.480Z,13.60
2024-03-01T08:01:06.965Z,13.43
2024-03-01T08:03:37.125Z,13.08
2024-03-01T08:06:04.447Z,13.47
2024-03-01T08:08:37.423Z,13.32
2024-03-01T08:11:10.164Z,13.55
2024-03-01T08:13:38.476Z,14.39
2024-03-01T08:16:15.470Z,14.49
2024-03-01T08:18:44.282Z,14.75
2024-03-01T08:21:15.629Z,13.69
2024-03-01T08:23:44.495Z,12.93
2024-03-01T08:26:30.576Z,12.21
2024-03-01T08:29:01.689Z,11.73
2024-03-01T08:31:37.762Z,11.63
2024-03-01T08:34:09.075Z,11.95
2024-03-01T08:36:36.649Z,12.04
2024-03-01T08:39:12.053Z,12.03
2024-03-01T08:41:40.887Z,12.19
2024-03-01T08:44:40.340Z,12.68
2024-03-01T08:47:16.575Z,12.70
2024-03-01T08:49:57.255Z,12.45
2024-03-01T08:52:35.744Z,12.71
2024-03-01T08:55:11.892Z,12.77
2024-03-01T08:57:39.894Z,12.27
2024-03-01T09:00:24.075Z,11.73
2024-03-01T09:02:51.314Z,12.01
2024-03-01T09:05:18.633Z,11.75
2024-03-01T09:07:46.322Z,11.78
2024-03-01T09:10:29.267Z,12.47
2024-03-01T09:12:57.015Z,12.44
2024-03-01T09:15:25.711Z,12.79
2024-03-01T09:17:54.431Z,12.54
2024-03-01T09:20:41.263Z,12.74
2024-03-01T09:23:13.793Z,12.64
2024-03-01T09:25:49.913Z,12.77
2024-03-01T09:28:18.570Z,12.15
2024-03-01T09:30:53.190Z,12.32
2024-03-01T09:33:22.041Z,12.00
2024-03-01T09:35:53.209Z,12.00
2024-03-01T09:38:25.270Z,12.03
2024-03-01T09:40:52.496Z,12.33
2024-03-01T09:43:34.731Z,11.95
2024-03-01T09:46:16.708Z,11.88
2024-03-01T09:49:08.521Z,12.13
2024-03-01T09:51:50.553Z,12.43
2024-03-01T09:54:38.568Z,12.03
2024-03-01T09:57:24.750Z,11.87
2024-03-01T10:00:11.263Z,11.97
2024-03-01T10:02:55.661Z,12.03
2024-03-01T10:05:34.621Z,11.86
2024-03-01T10:08:40.198Z,11.79
2024-03-01T10:11:23.265Z,12.39
2024-03-01T10:14:06.209Z,12.40
2024-03-01T10:16:36.310Z,12.93
2024-03-01T10:19:11.986Z,13.03
2024-03-01T10:21:53.834Z,12.73
2024-03-01T10:24:44.017Z,13.15
2024-03-01T10:27:35.896Z,13.04
2024-03-01T10:30:16.388Z,13.29
2024-03-01T10:32:49.322Z,12.96
2024-03-01T10:35:27.095Z,13.01
2024-03-01T10:38:21.753Z,12.77
2024-03-01T10:41:22.797Z,13.02
2024-03-01T10:44:21.905Z,13.24
2024-03-01T10:46:51.830Z,13.38
2024-03-01T10:49:35.998Z,13.34
2024-03-01T10:52:11.575Z,12.95
2024-03-01T10:54:41.907Z,12.79
2024-03-01T10:57:12.571Z,12.86
2024-03-01T10:59:49.212Z,13.26
2024-03-01T11:02:22.251Z,13.71
2024-03-01T11:04:49.962Z,14.17
2024-03-01T11:07:29.836Z,14.83
2024-03-01T11:10:10.389Z,15.22
2024-03-01T11:13:06.152Z,15.62
2024-03-01T11:15:36.927Z,15.88
2024-03-01T11:18:10.899Z,16.24
2024-03-01T11:20:38.823Z,16.14
2024-03-01T11:23:29.545Z,16.06
2024-03-01T11:26:15.082Z,14.21
2024-03-01T11:28:49.578Z,13.96
2024-03-01T11:31:22.500Z,13.90
2024-03-01T11:33:50.427Z,14.01
2024-03-01T11:36:43.767Z,13.54
2024-03-01T11:39:38.180Z,13.93
2024-03-01T11:42:27.832Z,14.15
2024-03-01T11:45:28.528Z,13.85
2024-03-01T11:48:26.695Z,13.32
2024-03-01T11:51:22.686Z,13.18
2024-03-01T11:53:49.537Z,12.54
2024-03-01T11:56:35.116Z,12.56
2024-03-01T11:59:25.478Z,13.31
2024-03-01T12:01:55.691Z,13.18
2024-03-01T12:04:52.952Z,13.11
2024-03-01T12:07:26.127Z,13.09
2024-03-01T12:10:32.365Z,13.22
2024-03-01T12:13:08.753Z,13.27
2024-03-01T12:16:05.251Z,13.65
2024-03-01T12:18:41.470Z,13.38
2024-03-01T12:21:20.478Z,13.57
2024-03-01T12:24:08.646Z,13.09
2024-03-01T12:26:58.197Z,12.99
2024-03-01T12:30:00.425Z,12.78
2024-03-01T12:32:50.728Z,12.49
2024-03-01T12:35:20.762Z,12.71
2024-03-01T12:38:00.521Z,12.64
2024-03-01T12:40:31.699Z,12.71
2024-03-01T12:43:09.571Z,12.98
2024-03-01T12:46:14.026Z,13.12
2024-03-01T12:48:53.158Z,13.05
2024-03-01T12:51:29.368Z,13.43
2024-03-01T12:54:06.123Z,13.47
2024-03-01T12:57:11.852Z,13.35
2024-03-01T12:59:49.541Z,12.70
2024-03-01T13:02:42.685Z,12.53
2024-03-01T13:05:42.258Z,12.86
2024-03-01T13:08:21.911Z,12.27
2024-03-01T13:10:49.215Z,12.08
2024-03-01T13:13:22.794Z,12.24
2024-03-01T13:15:55.943Z,12.36
2024-03-01T13:18:30.119Z,12.49
2024-03-01T13:21:09.417Z,12.67
2024-03-01T13:23:40.819Z,12.25
2024-03-01T13:26:25.771Z,12.13
2024-03-01T13:29:04.955Z,12.12
2024-03-01T13:32:00.687Z,12.04
2024-03-01T13:34:32.974Z,11.58
2024-03-01T13:37:10.788Z,11.32
2024-03-01T13:40:01.504Z,11.60
2024-03-01T13:42:51.275Z,11.50
2024-03-01T13:45:28.573Z,11.56
2024-03-01T13:48:09.028Z,11.40
2024-03-01T13:50:39.717Z,11.54
2024-03-01T13:53:09.346Z,11.55
2024-03-01T13:55:39.010Z,11.68
2024-03-01T13:58:07.334Z,12.23
2024-03-01T14:00:35.420Z,12.32
2024-03-01T14:03:04.245Z,12.35
2024-03-01T14:05:32.251Z,11.62
2024-03-01T14:08:02.421Z,11.11
2024-03-01T14:10:30.029Z,10.67
2024-03-01T14:12:57.712Z,10.60
2024-03-01T14:15:25.128Z,10.37
2024-03-01T14:17:52.293Z,10.18
2024-03-01T14:20:20.824Z,10.27
2024-03-01T14:22:54.767Z,10.15
2024-03-01T14:25:25.529Z,10.08
2024-03-01T14:27:58.373Z,10.25
2024-03-01T14:30:27.072Z,10.57
2024-03-01T14:33:08.593Z,10.59
2024-03-01T14:35:35.675Z,10.94
2024-03-01T14:38:21.196Z,10.95
2024-03-01T14:40:58.648Z,10.74
2024-03-01T14:43:27.617Z,11.02
2024-03-01T14:45:58.741Z,11.11
2024-03-01T14:48:30.408Z,10.88
2024-03-01T14:50:59.423Z,11.00
2024-03-01T14:53:47.289Z,11.24
2024-03-01T14:56:15.232Z,11.20
2024-03-01T14:58:45.945Z,11.30
2024-03-01T15:01:14.090Z,11.15
2024-03-01T15:03:41.612Z,10.94
2024-03-01T15:06:10.189Z,10.83
2024-03-01T15:08:38.357Z,10.81
2024-03-01T15:11:09.564Z,10.63
2024-03-01T15:13:37.981Z,10.68
2024-03-01T15:16:09.268Z,10.68
2024-03-01T15:18:42.742Z,10.81
2024-03-01T15:21:13.527Z,10.73
2024-03-01T15:23:41.758Z,10.78
2024-03-01T15:26:09.868Z,10.82
2024-03-01T15:28:38.132Z,10.75
2024-03-01T15:31:06.880Z,10.72
2024-03-01T15:33:34.395Z,10.66
2024-03-01T15:36:01.449Z,10.51
2024-03-01T15:38:28.592Z,10.33
2024-03-01T15:40:57.831Z,10.55
2024-03-01T15:43:25.466Z,10.63
2024-03-01T15:45:52.977Z,10.41
2024-03-01T15:48:20.258Z,10.47
2024-03-01T15:50:47.420Z,10.70
2024-03-01T15:53:16.360Z,10.69
2024-03-01T15:55:49.035Z,10.54
2024-03-01T15:58:16.228Z,10.93
2024-03-01T16:00:43.482Z,10.69
2024-03-01T16:03:10.541Z,10.32
2024-03-01T16:05:41.220Z,10.63
2024-03-01T16:08:19.320Z,10.60
2024-03-01T16:10:57.775Z,10.58
2024-03-01T16:13:33.073Z,10.84
2024-03-01T16:16:02.324Z,10.70
2024-03-01T16:18:34.596Z,10.59
2024-03-01T16:21:03.208Z,10.95
2024-03-01T16:23:31.102Z,10.64
2024-03-01T16:25:58.656Z,10.50
2024-03-01T16:28:26.922Z,10.64
2024-03-01T16:31:03.540Z,10.24
2024-03-01T16:33:31.864Z,10.29
2024-03-01T16:36:06.331Z,10.20
2024-03-01T16:38:37.660Z,10.48
2024-03-01T16:41:14.920Z,10.55
2024-03-01T16:43:45.203Z,10.33
2024-03-01T16:46:22.846Z,10.14
2024-03-01T16:48:54.134Z,10.01
2024-03-01T16:51:42.500Z,10.16
2024-03-01T16:54:26.328Z,10.34
2024-03-01T16:56:59.774Z,10.00
2024-03-01T16:59:27.174Z,10.02
2024-03-01T17:01:56.547Z,9.98
2024-03-01T17:04:27.801Z,9.97
2024-03-01T17:07:01.667Z,9.90
2024-03-01T17:09:32.023Z,10.18
2024-03-01T17:11:59.379Z,10.38
2024-03-01T17:14:26.758Z,10.29
2024-03-01T17:16:55.479Z,10.14
2024-03-01T17:19:35.800Z,10.24
2024-03-01T17:22:04.321Z,10.42
2024-03-01T17:24:31.885Z,10.31
2024-03-01T17:26:59.026Z,10.32
2024-03-01T17:29:26.319Z,10.13
2024-03-01T17:31:53.519Z,10.11
2024-03-01T17:34:20.614Z,10.41
2024-03-01T17:36:47.678Z,10.38
2024-03-01T17:39:15.023Z,10.13
2024-03-01T17:41:42.141Z,10.38
2024-03-01T17:44:09.415Z,10.46
2024-03-01T17:46:37.153Z,10.68
2024-03-01T17:49:04.479Z,10.12
2024-03-01T17:51:31.706Z,10.39
2024-03-01T17:54:01.014Z,10.45
2024-03-01T17:56:28.256Z,10.28
2024-03-01T17:58:55.542Z,10.17
2024-03-01T18:01:22.867Z,10.54
2024-03-01T18:03:50.025Z,10.88
2024-03-01T18:06:17.043Z,10.64
2024-03-01T18:08:44.095Z,10.12
2024-03-01T18:11:11.209Z,9.92
2024-03-01T18:13:38.663Z,9.53
2024-03-01T18:16:06.761Z,9.57
2024-03-01T18:18:33.800Z,9.47
2024-03-01T18:21:00.985Z,9.71
2024-03-01T18:23:28.031Z,9.94
2024-03-01T18:25:57.941Z,9.91
2024-03-01T18:28:25.048Z,9.76
2024-03-01T18:30:52.153Z,9.98
2024-03-01T18:33:19.438Z,10.43
2024-03-01T18:35:46.710Z,10.41
2024-03-01T18:38:13.970Z,10.22
2024-03-01T18:40:41.198Z,10.25
2024-03-01T18:43:08.518Z,10.16
2024-03-01T18:45:35.816Z,10.08
2024-03-01T18:48:03.269Z,10.31
2024-03-01T18:50:30.407Z,10.03
2024-03-01T18:52:58.573Z,10.22
2024-03-01T18:55:25.879Z,10.05
2024-03-01T18:57:54.651Z,10.26
2024-03-01T19:00:23.068Z,10.43
2024-03-01T19:02:50.443Z,10.55
2024-03-01T19:05:17.985Z,10.04
2024-03-01T19:07:45.303Z,10.41
2024-03-01T19:10:12.507Z,9.90
2024-03-01T19:12:39.670Z,9.67
2024-03-01T19:15:10.741Z,9.56
2024-03-01T19:17:38.616Z,9.76
2024-03-01T19:20:06.634Z,9.96
2024-03-01T19:22:34.921Z,9.84
2024-03-01T19:25:02.946Z,9.42
2024-03-01T19:27:30.874Z,9.35
2024-03-01T19:29:57.927Z,9.37
2024-03-01T19:32:25.315Z,9.39
2024-03-01T19:34:52.491Z,9.76
2024-03-01T19:37:20.132Z,9.66
2024-03-01T19:39:47.331Z,9.48
2024-03-01T19:42:15.720Z,9.48
2024-03-01T19:44:43.996Z,9.44
2024-03-01T19:47:12.303Z,9.23
2024-03-01T19:49:39.710Z,9.35
2024-03-01T19:52:07.081Z,9.46
2024-03-01T19:54:34.206Z,9.41
2024-03-01T19:57:04.707Z,9.89
2024-03-01T19:59:32.619Z,9.81
2024-03-01T20:01:59.786Z,9.86
2024-03-01T20:04:27.120Z,9.70
2024-03-01T20:06:54.367Z,9.73
2024-03-01T20:09:21.612Z,9.75
2024-03-01T20:11:55.883Z,9.60
2024-03-01T20:14:23.858Z,9.83
2024-03-01T20:16:52.589Z,9.37
2024-03-01T20:19:19.942Z,9.71
2024-03-01T20:21:47.453Z,9.86
2024-03-01T20:24:14.545Z,9.56
2024-03-01T20:26:41.633Z,9.41
2024-03-01T20:29:10.492Z,9.12
2024-03-01T20:31:37.686Z,8.97
2024-03-01T20:34:04.829Z,9.13
2024-03-01T20:36:31.888Z,9.50
2024-03-01T20:38:59.280Z,9.29
2024-03-01T20:41:26.385Z,9.28
2024-03-01T20:43:53.475Z,9.62
2024-03-01T20:46:20.543Z,9.59
2024-03-01T20:48:47.724Z,9.73
2024-03-01T20:51:14.839Z,9.74
2024-03-01T20:53:41.997Z,9.80
2024-03-01T20:56:09.162Z,9.67
2024-03-01T20:58:37.505Z,10.01
2024-03-01T21:01:05.080Z,9.92
2024-03-01T21:03:32.222Z,9.82
2024-03-01T21:05:59.397Z,9.98
2024-03-01T21:08:26.457Z,10.16
2024-03-01T21:10:54.738Z,10.27
2024-03-01T21:13:21.942Z,9.78
2024-03-01T21:15:49.964Z,9.97
2024-03-01T21:18:19.273Z,10.21
2024-03-01T21:20:46.424Z,10.24
2024-03-01T21:23:14.088Z,10.43
2024-03-01T21:25:41.429Z,10.30
2024-03-01T21:28:08.591Z,10.01
2024-03-01T21:30:35.753Z,9.70
2024-03-01T21:33:03.028Z,9.68
2024-03-01T21:35:31.444Z,9.53
2024-03-01T21:37:58.616Z,9.58
2024-03-01T21:40:25.825Z,9.56
2024-03-01T21:42:52.938Z,9.37
2024-03-01T21:45:20.075Z,9.22
2024-03-01T21:47:47.609Z,9.32
2024-03-01T21:50:14.848Z,9.67
2024-03-01T21:52:42.492Z,9.68
2024-03-01T21:55:09.773Z,9.76
2024-03-01T21:57:37.058Z,9.60
2024-03-01T22:00:05.180Z,9.70
2024-03-01T22:02:32.447Z,9.76
2024-03-01T22:05:02.272Z,9.75
2024-03-01T22:07:31.538Z,9.67
2024-03-01T22:09:59.230Z,9.49
2024-03-01T22:12:26.369Z,9.59
2024-03-01T22:14:54.156Z,9.85
2024-03-01T22:17:21.361Z,9.93
2024-03-01T22:19:48.421Z,9.49
2024-03-01T22:22:15.588Z,9.74
2024-03-01T22:24:44.341Z,10.03
2024-03-01T22:27:11.684Z,9.68
2024-03-01T22:29:38.803Z,10.14
2024-03-01T22:32:06.485Z,9.99
2024-03-01T22:34:33.805Z,10.17
2024-03-01T22:37:01.010Z,10.39
2024-03-01T22:39:28.752Z,10.60
2024-03-01T22:41:56.394Z,10.57
2024-03-01T22:44:23.734Z,10.67
2024-03-01T22:46:51.105Z,10.75
2024-03-01T22:49:18.547Z,10.72
2024-03-01T22:51:49.529Z,10.73
2024-03-01T22:54:27.012Z,10.64
2024-03-01T22:56:54.267Z,10.59
2024-03-01T23:00:22.437Z,10.81
2024-03-01T23:02:53.398Z,11.00
2024-03-01T23:05:48.710Z,11.19
2024-03-01T23:08:39.111Z,10.62
2024-03-01T23:11:08.534Z,9.52
2024-03-01T23:13:42.018Z,10.19
2024-03-01T23:16:09.924Z,10.56
2024-03-01T23:18:37.196Z,10.84
2024-03-01T23:21:04.482Z,10.72
2024-03-01T23:23:31.630Z,10.99
2024-03-01T23:25:59.280Z,10.84
2024-03-01T23:28:27.036Z,10.91
2024-03-01T23:30:54.407Z,10.59
2024-03-01T23:33:21.883Z,10.63
2024-03-01T23:35:49.136Z,10.85
2024-03-01T23:38:16.183Z,10.87
2024-03-01T23:40:51.542Z,10.82
2024-03-01T23:43:24.489Z,10.70
2024-03-01T23:45:51.755Z,10.91
2024-03-01T23:48:21.565Z,10.92
2024-03-01T23:50:49.093Z,10.36
2024-03-01T23:53:19.704Z,10.02
2024-03-01T23:55:47.364Z,10.28
2024-03-01T23:58:14.929Z,10.52
